sensor_id;sensor_type;location;lat;lon;timestamp;P1;durP1;ratioP1;P2;durP2;ratioP2
4053;SDS011;2042;47.956;9.222;2024-01-27T00:02:18;2.37;;;1.47;;
4053;SDS011;2042;47.956;9.222;2024-01-27T00:04:43;1.77;;;1.27;;
4053;SDS011;2042;47.956;9.222;2024-01-27T00:07:09;2.90;;;1.20;;
4053;SDS011;2042;47.956;9.222;2024-01-27T00:09:35;1.37;;;1.27;;
4053;SDS011;2042;47.956;9.222;2024-01-27T00:12:01;2.60;;;1.20;;
4053;SDS011;2042;47.956;9.222;2024-01-27T00:14:27;2.03;;;1.67;;
4053;SDS011;2042;47.956;9.222;2024-01-27T00:16:52;1.63;;;1.53;;
4053;SDS011;2042;47.956;9.222;2024-01-27T00:19:18;1.90;;;1.70;;
4053;SDS011;2042;47.956;9.222;2024-01-27T00:21:44;1.50;;;1.40;;
4053;SDS011;2042;47.956;9.222;2024-01-27T00:24:09;3.00;;;1.73;;
4053;SDS011;2042;47.956;9.222;2024-01-27T00:26:35;1.60;;;1.50;;
4053;SDS011;2042;47.956;9.222;2024-01-27T00:29:00;2.77;;;2.20;;
4053;SDS011;2042;47.956;9.222;2024-01-27T00:31:26;2.50;;;1.53;;
4053;SDS011;2042;47.956;9.222;2024-01-27T00:33:52;3.40;;;2.20;;
4053;SDS011;2042;47.956;9.222;2024-01-27T00:36:17;7.10;;;2.63;;
4053;SDS011;2042;47.956;9.222;2024-01-27T00:38:44;1.70;;;1.60;;
4053;SDS011;2042;47.956;9.222;2024-01-27T00:41:15;2.37;;;1.60;;
4053;SDS011;2042;47.956;9.222;2024-01-27T00:43:47;2.17;;;1.77;;
4053;SDS011;2042;47.956;9.222;2024-01-27T00:46:13;3.83;;;2.40;;
4053;SDS011;2042;47.956;9.222;2024-01-27T00:48:39;1.60;;;1.50;;
4053;SDS011;2042;47.956;9.222;2024-01-27T00:51:05;1.70;;;1.60;;
4053;SDS011;2042;47.956;9.222;2024-01-27T00:53:31;3.67;;;2.17;;
4053;SDS011;2042;47.956;9.222;2024-01-27T00:55:56;2.70;;;2.37;;
4053;SDS011;2042;47.956;9.222;2024-01-27T00:58:22;2.90;;;1.80;;
4053;SDS011;2042;47.956;9.222;2024-01-27T01:00:47;2.07;;;1.87;;
4053;SDS011;2042;47.956;9.222;2024-01-27T01:03:13;3.00;;;2.17;;
4053;SDS011;2042;47.956;9.222;2024-01-27T01:05:39;2.67;;;1.93;;
4053;SDS011;2042;47.956;9.222;2024-01-27T01:08:04;2.80;;;1.80;;
4053;SDS011;2042;47.956;9.222;2024-01-27T01:10:31;2.27;;;2.07;;
4053;SDS011;2042;47.956;9.222;2024-01-27T01:12:58;1.97;;;1.73;;
4053;SDS011;2042;47.956;9.222;2024-01-27T01:15:24;2.37;;;1.73;;
4053;SDS011;2042;47.956;9.222;2024-01-27T01:17:49;3.93;;;1.63;;
4053;SDS011;2042;47.956;9.222;2024-01-27T01:20:15;1.70;;;1.40;;
4053;SDS011;2042;47.956;9.222;2024-01-27T01:22:40;2.20;;;1.63;;
4053;SDS011;2042;47.956;9.222;2024-01-27T01:25:07;2.67;;;1.73;;
4053;SDS011;2042;47.956;9.222;2024-01-27T01:27:32;1.33;;;1.23;;
4053;SDS011;2042;47.956;9.222;2024-01-27T01:29:58;1.40;;;1.20;;
4053;SDS011;2042;47.956;9.222;2024-01-27T01:32:23;2.07;;;1.97;;
4053;SDS011;2042;47.956;9.222;2024-01-27T01:34:49;2.20;;;2.00;;
4053;SDS011;2042;47.956;9.222;2024-01-27T01:37:15;3.90;;;1.40;;
4053;SDS011;2042;47.956;9.222;2024-01-27T01:39:40;4.23;;;1.37;;
4053;SDS011;2042;47.956;9.222;2024-01-27T01:42:06;1.40;;;1.30;;
4053;SDS011;2042;47.956;9.222;2024-01-27T01:44:31;3.30;;;1.13;;
4053;SDS011;2042;47.956;9.222;2024-01-27T01:46:58;3.63;;;1.73;;
4053;SDS011;2042;47.956;9.222;2024-01-27T01:49:24;2.97;;;1.73;;
4053;SDS011;2042;47.956;9.222;2024-01-27T01:51:49;2.90;;;1.60;;
4053;SDS011;2042;47.956;9.222;2024-01-27T01:54:16;2.57;;;2.20;;
4053;SDS011;2042;47.956;9.222;2024-01-27T01:56:42;1.70;;;1.60;;
4053;SDS011;2042;47.956;9.222;2024-01-27T01:59:07;1.97;;;1.70;;
4053;SDS011;2042;47.956;9.222;2024-01-27T02:01:33;2.33;;;1.80;;
4053;SDS011;2042;47.956;9.222;2024-01-27T02:03:59;3.37;;;1.73;;
4053;SDS011;2042;47.956;9.222;2024-01-27T02:06:25;4.40;;;1.40;;
4053;SDS011;2042;47.956;9.222;2024-01-27T02:08:50;1.80;;;1.70;;
4053;SDS011;2042;47.956;9.222;2024-01-27T02:11:17;1.60;;;1.50;;
4053;SDS011;2042;47.956;9.222;2024-01-27T02:13:42;3.93;;;1.50;;
4053;SDS011;2042;47.956;9.222;2024-01-27T02:16:08;4.33;;;2.53;;
4053;SDS011;2042;47.956;9.222;2024-01-27T02:18:34;1.80;;;1.70;;
4053;SDS011;2042;47.956;9.222;2024-01-27T02:21:00;4.03;;;1.60;;
4053;SDS011;2042;47.956;9.222;2024-01-27T02:23:25;6.10;;;2.60;;
4053;SDS011;2042;47.956;9.222;2024-01-27T02:25:51;5.20;;;1.40;;
4053;SDS011;2042;47.956;9.222;2024-01-27T02:28:17;3.37;;;1.80;;
4053;SDS011;2042;47.956;9.222;2024-01-27T02:30:43;2.13;;;1.73;;
4053;SDS011;2042;47.956;9.222;2024-01-27T02:33:09;1.90;;;1.53;;
4053;SDS011;2042;47.956;9.222;2024-01-27T02:35:34;2.00;;;1.60;;
4053;SDS011;2042;47.956;9.222;2024-01-27T02:38:00;2.03;;;1.50;;
4053;SDS011;2042;47.956;9.222;2024-01-27T02:40:26;3.40;;;2.27;;
4053;SDS011;2042;47.956;9.222;2024-01-27T02:42:51;3.47;;;1.60;;
4053;SDS011;2042;47.956;9.222;2024-01-27T02:45:17;3.90;;;1.83;;
4053;SDS011;2042;47.956;9.222;2024-01-27T02:47:43;3.13;;;1.53;;
4053;SDS011;2042;47.956;9.222;2024-01-27T02:50:08;2.00;;;1.60;;
4053;SDS011;2042;47.956;9.222;2024-01-27T02:52:34;5.13;;;2.37;;
4053;SDS011;2042;47.956;9.222;2024-01-27T02:55:00;4.60;;;1.90;;
4053;SDS011;2042;47.956;9.222;2024-01-27T02:57:26;2.40;;;1.70;;
4053;SDS011;2042;47.956;9.222;2024-01-27T02:59:52;4.50;;;1.90;;
4053;SDS011;2042;47.956;9.222;2024-01-27T03:02:18;1.90;;;1.33;;
4053;SDS011;2042;47.956;9.222;2024-01-27T03:04:44;7.50;;;2.40;;
4053;SDS011;2042;47.956;9.222;2024-01-27T03:07:09;1.53;;;1.43;;
4053;SDS011;2042;47.956;9.222;2024-01-27T03:09:35;6.10;;;3.10;;
4053;SDS011;2042;47.956;9.222;2024-01-27T03:12:02;2.70;;;1.90;;
4053;SDS011;2042;47.956;9.222;2024-01-27T03:14:27;2.93;;;1.73;;
4053;SDS011;2042;47.956;9.222;2024-01-27T03:16:54;13.30;;;3.03;;
4053;SDS011;2042;47.956;9.222;2024-01-27T03:19:19;4.00;;;2.40;;
4053;SDS011;2042;47.956;9.222;2024-01-27T03:21:45;3.13;;;2.80;;
4053;SDS011;2042;47.956;9.222;2024-01-27T03:24:11;2.73;;;1.97;;
4053;SDS011;2042;47.956;9.222;2024-01-27T03:26:36;2.40;;;2.00;;
4053;SDS011;2042;47.956;9.222;2024-01-27T03:29:02;5.70;;;1.80;;
4053;SDS011;2042;47.956;9.222;2024-01-27T03:31:31;7.50;;;2.07;;
4053;SDS011;2042;47.956;9.222;2024-01-27T03:34:00;10.03;;;3.97;;
4053;SDS011;2042;47.956;9.222;2024-01-27T03:36:27;3.93;;;1.63;;
4053;SDS011;2042;47.956;9.222;2024-01-27T03:38:53;22.10;;;3.93;;
4053;SDS011;2042;47.956;9.222;2024-01-27T03:41:19;8.10;;;2.10;;
4053;SDS011;2042;47.956;9.222;2024-01-27T03:43:45;2.33;;;1.40;;
4053;SDS011;2042;47.956;9.222;2024-01-27T03:46:10;3.73;;;1.63;;
4053;SDS011;2042;47.956;9.222;2024-01-27T03:48:36;2.43;;;1.53;;
4053;SDS011;2042;47.956;9.222;2024-01-27T03:51:02;4.33;;;2.33;;
4053;SDS011;2042;47.956;9.222;2024-01-27T03:53:28;2.50;;;1.90;;
4053;SDS011;2042;47.956;9.222;2024-01-27T03:55:53;2.50;;;1.40;;
4053;SDS011;2042;47.956;9.222;2024-01-27T03:58:19;2.07;;;1.83;;
4053;SDS011;2042;47.956;9.222;2024-01-27T04:00:45;3.47;;;1.87;;
4053;SDS011;2042;47.956;9.222;2024-01-27T04:03:11;2.20;;;2.00;;
4053;SDS011;2042;47.956;9.222;2024-01-27T04:05:37;3.60;;;2.00;;
4053;SDS011;2042;47.956;9.222;2024-01-27T04:08:04;1.57;;;1.47;;
4053;SDS011;2042;47.956;9.222;2024-01-27T04:10:30;2.10;;;1.77;;
4053;SDS011;2042;47.956;9.222;2024-01-27T04:12:55;2.57;;;2.37;;
4053;SDS011;2042;47.956;9.222;2024-01-27T04:15:21;3.90;;;2.20;;
4053;SDS011;2042;47.956;9.222;2024-01-27T04:17:46;1.40;;;1.30;;
4053;SDS011;2042;47.956;9.222;2024-01-27T04:20:12;6.87;;;2.47;;
4053;SDS011;2042;47.956;9.222;2024-01-27T04:22:38;3.00;;;2.07;;
4053;SDS011;2042;47.956;9.222;2024-01-27T04:25:04;5.10;;;2.40;;
4053;SDS011;2042;47.956;9.222;2024-01-27T04:27:30;1.70;;;1.60;;
4053;SDS011;2042;47.956;9.222;2024-01-27T04:29:57;2.33;;;2.13;;
4053;SDS011;2042;47.956;9.222;2024-01-27T04:32:22;1.93;;;1.83;;
4053;SDS011;2042;47.956;9.222;2024-01-27T04:34:48;4.17;;;3.00;;
4053;SDS011;2042;47.956;9.222;2024-01-27T04:37:14;3.03;;;2.33;;
4053;SDS011;2042;47.956;9.222;2024-01-27T04:39:40;2.27;;;2.07;;
4053;SDS011;2042;47.956;9.222;2024-01-27T04:42:06;2.30;;;2.10;;
4053;SDS011;2042;47.956;9.222;2024-01-27T04:44:32;2.00;;;1.63;;
4053;SDS011;2042;47.956;9.222;2024-01-27T04:46:58;2.63;;;2.43;;
4053;SDS011;2042;47.956;9.222;2024-01-27T04:49:23;3.50;;;2.40;;
4053;SDS011;2042;47.956;9.222;2024-01-27T04:51:49;2.30;;;1.97;;
4053;SDS011;2042;47.956;9.222;2024-01-27T04:54:15;9.10;;;2.07;;
4053;SDS011;2042;47.956;9.222;2024-01-27T04:56:41;5.00;;;2.23;;
4053;SDS011;2042;47.956;9.222;2024-01-27T04:59:07;9.67;;;2.63;;
4053;SDS011;2042;47.956;9.222;2024-01-27T05:01:32;4.17;;;2.27;;
4053;SDS011;2042;47.956;9.222;2024-01-27T05:03:59;6.80;;;2.57;;
4053;SDS011;2042;47.956;9.222;2024-01-27T05:06:24;5.50;;;2.83;;
4053;SDS011;2042;47.956;9.222;2024-01-27T05:08:50;3.00;;;2.70;;
4053;SDS011;2042;47.956;9.222;2024-01-27T05:11:24;6.33;;;4.37;;
4053;SDS011;2042;47.956;9.222;2024-01-27T05:13:51;6.63;;;2.90;;
4053;SDS011;2042;47.956;9.222;2024-01-27T05:16:16;5.20;;;2.70;;
4053;SDS011;2042;47.956;9.222;2024-01-27T05:18:42;5.07;;;2.33;;
4053;SDS011;2042;47.956;9.222;2024-01-27T05:21:07;6.13;;;2.40;;
4053;SDS011;2042;47.956;9.222;2024-01-27T05:23:33;7.07;;;4.47;;
4053;SDS011;2042;47.956;9.222;2024-01-27T05:25:59;3.83;;;2.80;;
4053;SDS011;2042;47.956;9.222;2024-01-27T05:28:24;6.10;;;2.30;;
4053;SDS011;2042;47.956;9.222;2024-01-27T05:30:50;3.60;;;1.90;;
4053;SDS011;2042;47.956;9.222;2024-01-27T05:33:15;2.90;;;1.70;;
4053;SDS011;2042;47.956;9.222;2024-01-27T05:35:43;2.70;;;2.03;;
4053;SDS011;2042;47.956;9.222;2024-01-27T05:38:08;2.10;;;1.93;;
4053;SDS011;2042;47.956;9.222;2024-01-27T05:40:34;5.50;;;3.00;;
4053;SDS011;2042;47.956;9.222;2024-01-27T05:43:00;2.90;;;2.60;;
4053;SDS011;2042;47.956;9.222;2024-01-27T05:45:25;2.40;;;2.00;;
4053;SDS011;2042;47.956;9.222;2024-01-27T05:47:51;2.63;;;2.00;;
4053;SDS011;2042;47.956;9.222;2024-01-27T05:50:17;4.40;;;1.97;;
4053;SDS011;2042;47.956;9.222;2024-01-27T05:52:43;5.43;;;2.30;;
4053;SDS011;2042;47.956;9.222;2024-01-27T05:55:08;3.20;;;2.57;;
4053;SDS011;2042;47.956;9.222;2024-01-27T05:57:35;5.03;;;2.60;;
4053;SDS011;2042;47.956;9.222;2024-01-27T06:00:01;5.80;;;3.40;;
4053;SDS011;2042;47.956;9.222;2024-01-27T06:02:26;17.57;;;3.30;;
4053;SDS011;2042;47.956;9.222;2024-01-27T06:04:53;2.90;;;2.47;;
4053;SDS011;2042;47.956;9.222;2024-01-27T06:07:18;5.53;;;3.03;;
4053;SDS011;2042;47.956;9.222;2024-01-27T06:09:44;4.77;;;2.30;;
4053;SDS011;2042;47.956;9.222;2024-01-27T06:12:09;2.47;;;2.10;;
4053;SDS011;2042;47.956;9.222;2024-01-27T06:14:35;2.50;;;2.30;;
4053;SDS011;2042;47.956;9.222;2024-01-27T06:17:03;6.13;;;3.20;;
4053;SDS011;2042;47.956;9.222;2024-01-27T06:19:29;2.40;;;2.20;;
4053;SDS011;2042;47.956;9.222;2024-01-27T06:21:55;2.17;;;1.90;;
4053;SDS011;2042;47.956;9.222;2024-01-27T06:24:21;2.13;;;1.83;;
4053;SDS011;2042;47.956;9.222;2024-01-27T06:26:46;4.03;;;2.20;;
4053;SDS011;2042;47.956;9.222;2024-01-27T06:29:12;3.10;;;2.60;;
4053;SDS011;2042;47.956;9.222;2024-01-27T06:31:39;4.00;;;2.50;;
4053;SDS011;2042;47.956;9.222;2024-01-27T06:34:05;2.20;;;1.80;;
4053;SDS011;2042;47.956;9.222;2024-01-27T06:36:31;3.07;;;2.33;;
4053;SDS011;2042;47.956;9.222;2024-01-27T06:38:57;3.10;;;2.50;;
4053;SDS011;2042;47.956;9.222;2024-01-27T06:41:23;3.20;;;2.73;;
4053;SDS011;2042;47.956;9.222;2024-01-27T06:43:48;1.93;;;1.70;;
4053;SDS011;2042;47.956;9.222;2024-01-27T06:46:14;5.90;;;3.03;;
4053;SDS011;2042;47.956;9.222;2024-01-27T06:48:40;6.33;;;3.27;;
4053;SDS011;2042;47.956;9.222;2024-01-27T06:51:05;4.00;;;2.67;;
4053;SDS011;2042;47.956;9.222;2024-01-27T06:53:31;2.73;;;2.40;;
4053;SDS011;2042;47.956;9.222;2024-01-27T06:55:57;3.80;;;2.10;;
4053;SDS011;2042;47.956;9.222;2024-01-27T06:58:23;2.40;;;2.20;;
4053;SDS011;2042;47.956;9.222;2024-01-27T07:00:48;4.50;;;2.90;;
4053;SDS011;2042;47.956;9.222;2024-01-27T07:03:14;4.87;;;2.50;;
4053;SDS011;2042;47.956;9.222;2024-01-27T07:05:40;5.23;;;2.57;;
4053;SDS011;2042;47.956;9.222;2024-01-27T07:08:06;3.93;;;2.40;;
4053;SDS011;2042;47.956;9.222;2024-01-27T07:10:33;26.43;;;3.60;;
4053;SDS011;2042;47.956;9.222;2024-01-27T07:12:59;10.90;;;4.10;;
4053;SDS011;2042;47.956;9.222;2024-01-27T07:15:25;6.67;;;3.73;;
4053;SDS011;2042;47.956;9.222;2024-01-27T07:17:50;10.80;;;3.70;;
4053;SDS011;2042;47.956;9.222;2024-01-27T07:20:16;16.77;;;3.70;;
4053;SDS011;2042;47.956;9.222;2024-01-27T07:22:42;13.87;;;4.47;;
4053;SDS011;2042;47.956;9.222;2024-01-27T07:25:08;18.23;;;5.70;;
4053;SDS011;2042;47.956;9.222;2024-01-27T07:27:35;16.93;;;3.10;;
4053;SDS011;2042;47.956;9.222;2024-01-27T07:30:01;9.47;;;2.90;;
4053;SDS011;2042;47.956;9.222;2024-01-27T07:32:27;3.70;;;2.67;;
4053;SDS011;2042;47.956;9.222;2024-01-27T07:34:53;5.60;;;3.33;;
4053;SDS011;2042;47.956;9.222;2024-01-27T07:37:19;10.65;;;6.55;;
4053;SDS011;2042;47.956;9.222;2024-01-27T07:39:46;6.07;;;4.30;;
4053;SDS011;2042;47.956;9.222;2024-01-27T07:42:13;14.77;;;9.33;;
4053;SDS011;2042;47.956;9.222;2024-01-27T07:44:39;12.43;;;6.90;;
4053;SDS011;2042;47.956;9.222;2024-01-27T07:47:05;6.57;;;3.40;;
4053;SDS011;2042;47.956;9.222;2024-01-27T07:49:30;5.20;;;3.67;;
4053;SDS011;2042;47.956;9.222;2024-01-27T07:51:56;5.67;;;3.77;;
4053;SDS011;2042;47.956;9.222;2024-01-27T07:54:22;5.07;;;3.33;;
4053;SDS011;2042;47.956;9.222;2024-01-27T07:56:48;3.87;;;3.47;;
4053;SDS011;2042;47.956;9.222;2024-01-27T07:59:14;4.57;;;3.10;;
4053;SDS011;2042;47.956;9.222;2024-01-27T08:01:40;11.43;;;3.30;;
4053;SDS011;2042;47.956;9.222;2024-01-27T08:04:06;4.07;;;3.37;;
4053;SDS011;2042;47.956;9.222;2024-01-27T08:06:33;5.53;;;4.00;;
4053;SDS011;2042;47.956;9.222;2024-01-27T08:08:58;5.27;;;3.87;;
4053;SDS011;2042;47.956;9.222;2024-01-27T08:11:24;7.10;;;3.33;;
4053;SDS011;2042;47.956;9.222;2024-01-27T08:13:50;6.57;;;2.90;;
4053;SDS011;2042;47.956;9.222;2024-01-27T08:16:16;3.23;;;2.93;;
4053;SDS011;2042;47.956;9.222;2024-01-27T08:18:42;6.53;;;2.87;;
4053;SDS011;2042;47.956;9.222;2024-01-27T08:21:09;4.90;;;3.13;;
4053;SDS011;2042;47.956;9.222;2024-01-27T08:23:36;3.40;;;3.07;;
4053;SDS011;2042;47.956;9.222;2024-01-27T08:26:02;3.90;;;2.90;;
4053;SDS011;2042;47.956;9.222;2024-01-27T08:28:28;3.60;;;2.43;;
4053;SDS011;2042;47.956;9.222;2024-01-27T08:30:54;4.43;;;3.47;;
4053;SDS011;2042;47.956;9.222;2024-01-27T08:33:19;5.20;;;3.00;;
4053;SDS011;2042;47.956;9.222;2024-01-27T08:35:48;5.80;;;4.57;;
4053;SDS011;2042;47.956;9.222;2024-01-27T08:38:14;4.33;;;2.77;;
4053;SDS011;2042;47.956;9.222;2024-01-27T08:40:39;4.27;;;3.87;;
4053;SDS011;2042;47.956;9.222;2024-01-27T08:43:05;3.40;;;3.10;;
4053;SDS011;2042;47.956;9.222;2024-01-27T08:45:31;3.23;;;2.90;;
4053;SDS011;2042;47.956;9.222;2024-01-27T08:47:57;3.50;;;3.20;;
4053;SDS011;2042;47.956;9.222;2024-01-27T08:50:24;2.73;;;2.53;;
4053;SDS011;2042;47.956;9.222;2024-01-27T08:52:49;2.90;;;2.60;;
4053;SDS011;2042;47.956;9.222;2024-01-27T08:55:15;3.60;;;2.90;;
4053;SDS011;2042;47.956;9.222;2024-01-27T08:57:43;3.30;;;2.73;;
4053;SDS011;2042;47.956;9.222;2024-01-27T09:00:11;10.80;;;3.47;;
4053;SDS011;2042;47.956;9.222;2024-01-27T09:02:38;2.97;;;2.60;;
4053;SDS011;2042;47.956;9.222;2024-01-27T09:05:04;3.30;;;3.03;;
4053;SDS011;2042;47.956;9.222;2024-01-27T09:07:30;10.73;;;3.63;;
4053;SDS011;2042;47.956;9.222;2024-01-27T09:09:56;5.30;;;2.77;;
4053;SDS011;2042;47.956;9.222;2024-01-27T09:12:22;4.47;;;2.33;;
4053;SDS011;2042;47.956;9.222;2024-01-27T09:14:47;6.33;;;2.87;;
4053;SDS011;2042;47.956;9.222;2024-01-27T09:17:13;31.53;;;4.23;;
4053;SDS011;2042;47.956;9.222;2024-01-27T09:19:39;5.10;;;2.60;;
4053;SDS011;2042;47.956;9.222;2024-01-27T09:22:04;12.00;;;3.90;;
4053;SDS011;2042;47.956;9.222;2024-01-27T09:24:30;4.60;;;2.73;;
4053;SDS011;2042;47.956;9.222;2024-01-27T09:26:55;2.83;;;2.63;;
4053;SDS011;2042;47.956;9.222;2024-01-27T09:29:21;3.70;;;2.90;;
4053;SDS011;2042;47.956;9.222;2024-01-27T09:31:46;6.30;;;3.20;;
4053;SDS011;2042;47.956;9.222;2024-01-27T09:34:12;4.10;;;3.00;;
4053;SDS011;2042;47.956;9.222;2024-01-27T09:36:38;3.00;;;2.80;;
4053;SDS011;2042;47.956;9.222;2024-01-27T09:39:04;3.40;;;2.93;;
4053;SDS011;2042;47.956;9.222;2024-01-27T09:41:30;3.30;;;2.40;;
4053;SDS011;2042;47.956;9.222;2024-01-27T09:43:59;4.50;;;2.77;;
4053;SDS011;2042;47.956;9.222;2024-01-27T09:46:27;2.50;;;2.30;;
4053;SDS011;2042;47.956;9.222;2024-01-27T09:48:54;2.70;;;2.50;;
4053;SDS011;2042;47.956;9.222;2024-01-27T09:51:20;2.60;;;2.17;;
4053;SDS011;2042;47.956;9.222;2024-01-27T09:53:46;4.80;;;3.03;;
4053;SDS011;2042;47.956;9.222;2024-01-27T09:56:14;3.70;;;2.60;;
4053;SDS011;2042;47.956;9.222;2024-01-27T09:58:43;4.03;;;2.60;;
4053;SDS011;2042;47.956;9.222;2024-01-27T10:01:10;3.37;;;2.40;;
4053;SDS011;2042;47.956;9.222;2024-01-27T10:03:36;2.57;;;2.30;;
4053;SDS011;2042;47.956;9.222;2024-01-27T10:06:05;3.10;;;2.60;;
4053;SDS011;2042;47.956;9.222;2024-01-27T10:08:34;6.87;;;3.20;;
4053;SDS011;2042;47.956;9.222;2024-01-27T10:11:00;6.33;;;3.33;;
4053;SDS011;2042;47.956;9.222;2024-01-27T10:13:32;3.67;;;2.80;;
4053;SDS011;2042;47.956;9.222;2024-01-27T10:16:02;4.40;;;2.63;;
4053;SDS011;2042;47.956;9.222;2024-01-27T10:18:32;5.37;;;2.73;;
4053;SDS011;2042;47.956;9.222;2024-01-27T10:20:59;3.80;;;3.43;;
4053;SDS011;2042;47.956;9.222;2024-01-27T10:23:25;3.17;;;2.90;;
4053;SDS011;2042;47.956;9.222;2024-01-27T10:25:51;4.23;;;3.03;;
4053;SDS011;2042;47.956;9.222;2024-01-27T10:28:17;5.40;;;3.20;;
4053;SDS011;2042;47.956;9.222;2024-01-27T10:30:44;5.70;;;2.80;;
4053;SDS011;2042;47.956;9.222;2024-01-27T10:33:10;2.30;;;2.10;;
4053;SDS011;2042;47.956;9.222;2024-01-27T10:35:38;5.57;;;3.37;;
4053;SDS011;2042;47.956;9.222;2024-01-27T10:38:04;6.00;;;2.77;;
4053;SDS011;2042;47.956;9.222;2024-01-27T10:40:30;4.60;;;2.73;;
4053;SDS011;2042;47.956;9.222;2024-01-27T10:43:03;3.40;;;3.10;;
4053;SDS011;2042;47.956;9.222;2024-01-27T10:45:39;3.80;;;3.00;;
4053;SDS011;2042;47.956;9.222;2024-01-27T10:48:07;4.07;;;2.47;;
4053;SDS011;2042;47.956;9.222;2024-01-27T10:50:37;3.57;;;3.27;;
4053;SDS011;2042;47.956;9.222;2024-01-27T10:53:04;4.07;;;2.77;;
4053;SDS011;2042;47.956;9.222;2024-01-27T10:55:34;5.53;;;3.00;;
4053;SDS011;2042;47.956;9.222;2024-01-27T10:58:03;2.97;;;2.77;;
4053;SDS011;2042;47.956;9.222;2024-01-27T11:00:29;3.17;;;2.90;;
4053;SDS011;2042;47.956;9.222;2024-01-27T11:02:59;4.60;;;2.70;;
4053;SDS011;2042;47.956;9.222;2024-01-27T11:05:27;4.33;;;3.63;;
4053;SDS011;2042;47.956;9.222;2024-01-27T11:07:54;4.83;;;3.50;;
4053;SDS011;2042;47.956;9.222;2024-01-27T11:10:22;4.83;;;2.93;;
4053;SDS011;2042;47.956;9.222;2024-01-27T11:12:48;3.43;;;3.10;;
4053;SDS011;2042;47.956;9.222;2024-01-27T11:15:15;4.15;;;3.30;;
4053;SDS011;2042;47.956;9.222;2024-01-27T11:17:41;4.30;;;3.03;;
4053;SDS011;2042;47.956;9.222;2024-01-27T11:20:07;2.83;;;2.23;;
4053;SDS011;2042;47.956;9.222;2024-01-27T11:22:36;2.77;;;2.40;;
4053;SDS011;2042;47.956;9.222;2024-01-27T11:27:37;2.60;;;2.30;;
4053;SDS011;2042;47.956;9.222;2024-01-27T11:30:04;3.23;;;2.13;;
4053;SDS011;2042;47.956;9.222;2024-01-27T11:32:30;3.27;;;2.57;;
4053;SDS011;2042;47.956;9.222;2024-01-27T11:34:56;2.70;;;2.07;;
4053;SDS011;2042;47.956;9.222;2024-01-27T11:37:22;4.00;;;3.40;;
4053;SDS011;2042;47.956;9.222;2024-01-27T11:39:51;3.47;;;3.17;;
4053;SDS011;2042;47.956;9.222;2024-01-27T11:42:17;3.20;;;2.23;;
4053;SDS011;2042;47.956;9.222;2024-01-27T11:44:44;6.03;;;2.10;;
4053;SDS011;2042;47.956;9.222;2024-01-27T11:47:14;3.60;;;2.30;;
4053;SDS011;2042;47.956;9.222;2024-01-27T11:49:41;3.57;;;2.60;;
4053;SDS011;2042;47.956;9.222;2024-01-27T11:52:08;6.30;;;2.10;;
4053;SDS011;2042;47.956;9.222;2024-01-27T11:54:33;2.30;;;2.10;;
4053;SDS011;2042;47.956;9.222;2024-01-27T11:57:00;3.87;;;2.80;;
4053;SDS011;2042;47.956;9.222;2024-01-27T11:59:26;3.70;;;1.93;;
4053;SDS011;2042;47.956;9.222;2024-01-27T12:01:52;3.53;;;2.40;;
4053;SDS011;2042;47.956;9.222;2024-01-27T12:04:18;3.33;;;1.57;;
4053;SDS011;2042;47.956;9.222;2024-01-27T12:06:46;4.60;;;1.90;;
4053;SDS011;2042;47.956;9.222;2024-01-27T12:09:12;2.10;;;1.80;;
4053;SDS011;2042;47.956;9.222;2024-01-27T12:11:38;2.03;;;1.70;;
4053;SDS011;2042;47.956;9.222;2024-01-27T12:14:07;2.43;;;1.80;;
4053;SDS011;2042;47.956;9.222;2024-01-27T12:16:33;3.23;;;2.10;;
4053;SDS011;2042;47.956;9.222;2024-01-27T12:18:59;3.23;;;2.13;;
4053;SDS011;2042;47.956;9.222;2024-01-27T12:21:25;2.60;;;2.40;;
4053;SDS011;2042;47.956;9.222;2024-01-27T12:23:54;5.73;;;2.53;;
4053;SDS011;2042;47.956;9.222;2024-01-27T12:26:21;3.60;;;2.20;;
4053;SDS011;2042;47.956;9.222;2024-01-27T12:28:48;3.07;;;2.77;;
4053;SDS011;2042;47.956;9.222;2024-01-27T12:31:17;7.67;;;2.30;;
4053;SDS011;2042;47.956;9.222;2024-01-27T12:34:17;3.30;;;2.10;;
4053;SDS011;2042;47.956;9.222;2024-01-27T12:36:39;3.27;;;2.27;;
4053;SDS011;2042;47.956;9.222;2024-01-27T12:39:08;4.20;;;2.70;;
4053;SDS011;2042;47.956;9.222;2024-01-27T12:41:35;4.80;;;2.20;;
4053;SDS011;2042;47.956;9.222;2024-01-27T12:44:01;5.53;;;2.83;;
4053;SDS011;2042;47.956;9.222;2024-01-27T12:46:27;3.00;;;2.30;;
4053;SDS011;2042;47.956;9.222;2024-01-27T12:48:53;3.43;;;2.67;;
4053;SDS011;2042;47.956;9.222;2024-01-27T12:51:19;2.90;;;2.70;;
4053;SDS011;2042;47.956;9.222;2024-01-27T12:53:45;3.00;;;2.50;;
4053;SDS011;2042;47.956;9.222;2024-01-27T12:56:11;5.60;;;3.10;;
4053;SDS011;2042;47.956;9.222;2024-01-27T12:58:38;5.10;;;2.90;;
4053;SDS011;2042;47.956;9.222;2024-01-27T13:01:05;3.97;;;3.17;;
4053;SDS011;2042;47.956;9.222;2024-01-27T13:03:31;6.77;;;2.87;;
4053;SDS011;2042;47.956;9.222;2024-01-27T13:05:58;2.93;;;2.70;;
4053;SDS011;2042;47.956;9.222;2024-01-27T13:08:24;4.57;;;2.70;;
4053;SDS011;2042;47.956;9.222;2024-01-27T13:10:49;5.87;;;2.90;;
4053;SDS011;2042;47.956;9.222;2024-01-27T13:13:15;5.80;;;3.53;;
4053;SDS011;2042;47.956;9.222;2024-01-27T13:15:41;6.00;;;2.87;;
4053;SDS011;2042;47.956;9.222;2024-01-27T13:18:08;3.93;;;3.17;;
4053;SDS011;2042;47.956;9.222;2024-01-27T13:20:35;3.40;;;3.10;;
4053;SDS011;2042;47.956;9.222;2024-01-27T13:23:01;4.80;;;3.10;;
4053;SDS011;2042;47.956;9.222;2024-01-27T13:25:27;4.20;;;2.50;;
4053;SDS011;2042;47.956;9.222;2024-01-27T13:27:52;3.43;;;2.63;;
4053;SDS011;2042;47.956;9.222;2024-01-27T13:30:18;3.97;;;2.80;;
4053;SDS011;2042;47.956;9.222;2024-01-27T13:32:44;3.27;;;2.97;;
4053;SDS011;2042;47.956;9.222;2024-01-27T13:35:10;4.23;;;3.40;;
4053;SDS011;2042;47.956;9.222;2024-01-27T13:37:36;4.17;;;3.10;;
4053;SDS011;2042;47.956;9.222;2024-01-27T13:40:02;5.97;;;2.70;;
4053;SDS011;2042;47.956;9.222;2024-01-27T13:42:29;5.93;;;3.13;;
4053;SDS011;2042;47.956;9.222;2024-01-27T13:44:55;2.40;;;2.20;;
4053;SDS011;2042;47.956;9.222;2024-01-27T13:47:21;11.60;;;3.20;;
4053;SDS011;2042;47.956;9.222;2024-01-27T13:49:47;2.83;;;2.60;;
4053;SDS011;2042;47.956;9.222;2024-01-27T13:52:13;4.03;;;3.30;;
4053;SDS011;2042;47.956;9.222;2024-01-27T13:54:39;5.73;;;3.30;;
4053;SDS011;2042;47.956;9.222;2024-01-27T13:57:05;4.20;;;3.60;;
4053;SDS011;2042;47.956;9.222;2024-01-27T13:59:31;6.27;;;2.97;;
4053;SDS011;2042;47.956;9.222;2024-01-27T14:01:57;3.70;;;2.53;;
4053;SDS011;2042;47.956;9.222;2024-01-27T14:04:23;8.83;;;3.30;;
4053;SDS011;2042;47.956;9.222;2024-01-27T14:06:51;6.43;;;2.87;;
4053;SDS011;2042;47.956;9.222;2024-01-27T14:09:18;5.50;;;2.80;;
4053;SDS011;2042;47.956;9.222;2024-01-27T14:11:47;4.30;;;2.87;;
4053;SDS011;2042;47.956;9.222;2024-01-27T14:14:13;3.80;;;2.83;;
4053;SDS011;2042;47.956;9.222;2024-01-27T14:16:38;6.13;;;3.20;;
4053;SDS011;2042;47.956;9.222;2024-01-27T14:19:05;3.83;;;2.33;;
4053;SDS011;2042;47.956;9.222;2024-01-27T14:21:31;5.13;;;3.30;;
4053;SDS011;2042;47.956;9.222;2024-01-27T14:23:57;4.43;;;2.80;;
4053;SDS011;2042;47.956;9.222;2024-01-27T14:26:28;4.73;;;2.63;;
4053;SDS011;2042;47.956;9.222;2024-01-27T14:28:54;3.20;;;2.17;;
4053;SDS011;2042;47.956;9.222;2024-01-27T14:31:20;6.47;;;3.30;;
4053;SDS011;2042;47.956;9.222;2024-01-27T14:33:46;6.30;;;2.90;;
4053;SDS011;2042;47.956;9.222;2024-01-27T14:36:12;2.70;;;2.50;;
4053;SDS011;2042;47.956;9.222;2024-01-27T14:38:38;4.40;;;2.80;;
4053;SDS011;2042;47.956;9.222;2024-01-27T14:41:05;3.90;;;2.43;;
4053;SDS011;2042;47.956;9.222;2024-01-27T14:43:36;3.50;;;2.20;;
4053;SDS011;2042;47.956;9.222;2024-01-27T14:46:03;3.50;;;2.20;;
4053;SDS011;2042;47.956;9.222;2024-01-27T14:48:29;2.87;;;2.20;;
4053;SDS011;2042;47.956;9.222;2024-01-27T14:50:55;3.40;;;2.60;;
4053;SDS011;2042;47.956;9.222;2024-01-27T14:53:27;2.60;;;1.80;;
4053;SDS011;2042;47.956;9.222;2024-01-27T14:55:55;3.10;;;2.10;;
4053;SDS011;2042;47.956;9.222;2024-01-27T14:58:21;3.73;;;2.27;;
4053;SDS011;2042;47.956;9.222;2024-01-27T15:00:47;3.83;;;2.67;;
4053;SDS011;2042;47.956;9.222;2024-01-27T15:03:20;3.40;;;2.67;;
4053;SDS011;2042;47.956;9.222;2024-01-27T15:05:49;5.33;;;2.17;;
4053;SDS011;2042;47.956;9.222;2024-01-27T15:08:17;2.57;;;1.90;;
4053;SDS011;2042;47.956;9.222;2024-01-27T15:10:43;5.10;;;2.70;;
4053;SDS011;2042;47.956;9.222;2024-01-27T15:13:12;3.07;;;2.20;;